Triumph — WDC9555 — position and weather

sailwx.info

Track history (hours):
 
Tides and Currents Weather Stations Pressure Air Temp Water Temp Dewpoint Dewpoint Depression Visibility Wind Speed Wind Dir Waves Ship Positions

Triumph

Owner: WESTERN TOWBOAT CO, SEATTLE, WA. More information available from US FCC via Universal Licensing System and Coast Guard Vessel Documentation Center.

Last reported at 2016-Dec-08 06:33 UTC. Time now 2016-Dec-08 18:18 UTC.
Position N 47°34' W 122°21'.

Length 24 m; draft 3 m.

Type: Tow > 200 m length. MMSI: 367103880.

Date/timePositionNaut miles runAvg speedWind from/ knotsBaromVisibWave heightAir tempDewpointWater temp
2016-Dec-08 06:33N 47°34' W 122°21'1 1.4
2016-Dec-08 05:33N 47°35' W 122°22'1 1.2
2016-Dec-08 04:33N 47°36' W 122°23'6 6.4
2016-Dec-08 03:33N 47°42' W 122°28'7 7.4
2016-Dec-08 02:33N 47°49' W 122°28'7 6.4
2016-Dec-08 01:28N 47°56' W 122°32'5 5.6
2016-Dec-08 00:33N 47°60' W 122°37'25 4.9
2016-Dec-07 19:26N 48°24' W 122°45'5 6.1
2016-Dec-07 18:33N 48°30' W 122°45'5 4.6
2016-Dec-07 17:33N 48°34' W 122°45'4 4.1
2016-Dec-07 16:33N 48°38' W 122°44'5 5.1
2016-Dec-07 15:33N 48°44' W 122°46'12 4.8
2016-Dec-07 13:09N 48°50' W 123°00'5 5.8
2016-Dec-07 12:12N 48°53' W 123°07'6 6.3
2016-Dec-07 11:19N 48°57' W 123°13'5 6.5
2016-Dec-07 10:33N 49°00' W 123°19'6 6.2
2016-Dec-07 09:32N 49°05' W 123°25'7 6.4
2016-Dec-07 08:30N 49°11' W 123°30'8 6.6
2016-Dec-07 07:22N 49°17' W 123°36'6 6.6
2016-Dec-07 06:31N 49°22' W 123°41'6 6.6
2016-Dec-07 05:32N 49°28' W 123°45'0 0.2
2016-Dec-07 04:33N 49°28' W 123°45'0 0.1
2016-Dec-07 03:30N 49°28' W 123°45'6 6.2
2016-Dec-07 02:33N 49°23' W 123°41'1010.1
2016-Dec-07 01:33N 49°15' W 123°31'9 9.2
2016-Dec-07 00:33N 49°08' W 123°23'1010.0
2016-Dec-06 23:33N 49°07' W 123°08'4 4.4
2016-Dec-06 22:33N 49°09' W 123°02'0 0.0
2016-Dec-06 21:33N 49°09' W 123°02'0 0.0
2016-Dec-05 14:33N 49°09' W 123°02'0 0.4
2016-Dec-05 13:33N 49°09' W 123°02'4 4.0
2016-Dec-05 12:29N 49°06' W 123°08'4 4.1
2016-Dec-05 11:33N 49°08' W 123°13'3 3.2
2016-Dec-05 10:31N 49°06' W 123°18'2 2.5
2016-Dec-05 09:33N 49°04' W 123°19'6 5.9
2016-Dec-05 08:33N 48°60' W 123°13'5 5.2
2016-Dec-05 07:32N 48°56' W 123°07'23 4.7
2016-Dec-05 02:33N 48°39' W 122°43'6 6.3
2016-Dec-05 01:33N 48°33' W 122°45'6 6.3
2016-Dec-05 00:33N 48°27' W 122°44'26 5.1
2016-Dec-04 19:23N 48°01' W 122°37'6 7.7
2016-Dec-04 18:33N 47°56' W 122°30'6 6.3
2016-Dec-04 17:33N 47°51' W 122°27'6 5.9
2016-Dec-04 16:33N 47°45' W 122°26'7 6.5
2016-Dec-04 15:33N 47°38' W 122°26'4 3.8
2016-Dec-04 14:33N 47°35' W 122°22'2 0.1
2016-Dec-03 03:33N 47°33' W 122°21'4 3.6
2016-Dec-03 02:34N 47°36' W 122°23'6 6.0
2016-Dec-03 01:33N 47°41' W 122°28'6 6.3
2016-Dec-03 00:33N 47°48' W 122°28'7 6.5
2016-Dec-02 23:33N 47°54' W 122°30'7 6.6
2016-Dec-02 22:32N 47°59' W 122°37'32 5.4
2016-Dec-02 16:32N 48°31' W 122°45'5 5.5
2016-Dec-02 15:33N 48°36' W 122°45'5 4.6
2016-Dec-02 14:34N 48°41' W 122°44'4 4.2
2016-Dec-02 13:33N 48°45' W 122°47'6 5.5
2016-Dec-02 12:33N 48°48' W 122°54'5 5.1
2016-Dec-02 11:33N 48°51' W 123°00'6 5.9
2016-Dec-02 10:33N 48°54' W 123°07'6 6.0
2016-Dec-02 09:33N 48°58' W 123°14'6 6.3
2016-Dec-02 08:33N 49°03' W 123°20'7 6.5
2016-Dec-02 07:33N 49°07' W 123°12'7 6.7
2016-Dec-02 06:33N 49°09' W 123°02'0 0.1
2016-Dec-02 05:33N 49°09' W 123°02'0 0.0
2016-Dec-02 04:33N 49°09' W 123°02'0 0.0
2016-Dec-02 03:34N 49°09' W 123°02'0 0.0
2016-Dec-02 02:33N 49°09' W 123°02'0 0.0
2016-Dec-02 01:34N 49°09' W 123°02'0 0.0
2016-Dec-02 00:33N 49°09' W 123°02'0 0.0
2016-Dec-01 23:33N 49°09' W 123°02'0 0.0
2016-Dec-01 22:33N 49°09' W 123°02'0 0.0
2016-Dec-01 21:34N 49°09' W 123°02'0 0.0
2016-Dec-01 20:34N 49°09' W 123°02'0 0.0
2016-Dec-01 19:33N 49°09' W 123°02'0 0.0
2016-Dec-01 18:33N 49°09' W 123°02'0 0.0
2016-Dec-01 17:34N 49°09' W 123°02'0 0.0
2016-Dec-01 16:34N 49°09' W 123°02'0 0.0
2016-Dec-01 15:34N 49°09' W 123°02'0 0.0
2016-Dec-01 14:34N 49°09' W 123°02'0 0.0
2016-Dec-01 13:34N 49°09' W 123°02'0 0.0
2016-Dec-01 12:33N 49°09' W 123°02'5 4.5
2016-Dec-01 11:33N 49°07' W 123°08'7 7.4
2016-Dec-01 10:33N 49°06' W 123°19'7 7.3
2016-Dec-01 09:32N 48°60' W 123°13'25 8.5
2016-Dec-01 06:34N 48°43' W 122°44'6 6.1
2016-Dec-01 05:33N 48°37' W 122°45'5 5.3
2016-Dec-01 04:31N 48°31' W 122°44'6 6.0
2016-Dec-01 03:28N 48°25' W 122°44'28 7.1
2016-Nov-30 23:34N 47°58' W 122°34'8 7.9
2016-Nov-30 22:34N 47°51' W 122°27'9 8.9
2016-Nov-30 21:34N 47°43' W 122°27'7 7.5
2016-Nov-30 20:34N 47°36' W 122°22'4 4.4
2016-Nov-30 19:34N 47°40' W 122°24'1 0.0
2016-Nov-29 07:19N 47°39' W 122°22'0 0.5
2016-Nov-29 06:33N 47°40' W 122°22'2 2.0
2016-Nov-29 05:33N 47°41' W 122°25'6 6.2
2016-Nov-29 04:33N 47°35' W 122°27'9 8.7
2016-Nov-29 03:33N 47°26' W 122°31'9 9.1
2016-Nov-29 02:33N 47°17' W 122°33'9 9.0
2016-Nov-29 01:32N 47°09' W 122°39'1 0.6
2016-Nov-29 00:24N 47°09' W 122°38'0 0.0
2016-Nov-28 23:33N 47°09' W 122°38'0 0.1
2016-Nov-28 21:30N 47°08' W 122°39'4 4.4
2016-Nov-28 20:30N 47°12' W 122°36'9 9.4
2016-Nov-28 19:33N 47°21' W 122°33'8 8.5
2016-Nov-28 18:33N 47°29' W 122°30'9 8.9
2016-Nov-28 17:33N 47°38' W 122°28'3 3.3
2016-Nov-28 16:33N 47°40' W 122°24'  
Track history (hours):
 
Tides and Currents Weather Stations Pressure Air Temp Water Temp Dewpoint Dewpoint Depression Visibility Wind Speed Wind Dir Waves Ship Positions

Triumph

Owner: WESTERN TOWBOAT CO, SEATTLE, WA. More information available from US FCC via Universal Licensing System and Coast Guard Vessel Documentation Center.

Last reported at 2016-Dec-08 06:33 UTC. Time now 2016-Dec-08 18:18 UTC.
Position N 47°34' W 122°21'.

Length 24 m; draft 3 m.

Type: Tow > 200 m length. MMSI: 367103880.

Date/timePositionNaut miles runAvg speedWind from/ knotsBaromVisibWave heightAir tempDewpointWater temp
2016-Dec-08 06:33N 47°34' W 122°21'1 1.4
2016-Dec-08 05:33N 47°35' W 122°22'1 1.2
2016-Dec-08 04:33N 47°36' W 122°23'6 6.4
2016-Dec-08 03:33N 47°42' W 122°28'7 7.4
2016-Dec-08 02:33N 47°49' W 122°28'7 6.4
2016-Dec-08 01:28N 47°56' W 122°32'5 5.6
2016-Dec-08 00:33N 47°60' W 122°37'25 4.9
2016-Dec-07 19:26N 48°24' W 122°45'5 6.1
2016-Dec-07 18:33N 48°30' W 122°45'5 4.6
2016-Dec-07 17:33N 48°34' W 122°45'4 4.1
2016-Dec-07 16:33N 48°38' W 122°44'5 5.1
2016-Dec-07 15:33N 48°44' W 122°46'12 4.8
2016-Dec-07 13:09N 48°50' W 123°00'5 5.8
2016-Dec-07 12:12N 48°53' W 123°07'6 6.3
2016-Dec-07 11:19N 48°57' W 123°13'5 6.5
2016-Dec-07 10:33N 49°00' W 123°19'6 6.2
2016-Dec-07 09:32N 49°05' W 123°25'7 6.4
2016-Dec-07 08:30N 49°11' W 123°30'8 6.6
2016-Dec-07 07:22N 49°17' W 123°36'6 6.6
2016-Dec-07 06:31N 49°22' W 123°41'6 6.6
2016-Dec-07 05:32N 49°28' W 123°45'0 0.2
2016-Dec-07 04:33N 49°28' W 123°45'0 0.1
2016-Dec-07 03:30N 49°28' W 123°45'6 6.2
2016-Dec-07 02:33N 49°23' W 123°41'1010.1
2016-Dec-07 01:33N 49°15' W 123°31'9 9.2
2016-Dec-07 00:33N 49°08' W 123°23'1010.0
2016-Dec-06 23:33N 49°07' W 123°08'4 4.4
2016-Dec-06 22:33N 49°09' W 123°02'0 0.0
2016-Dec-06 21:33N 49°09' W 123°02'0 0.0
2016-Dec-05 14:33N 49°09' W 123°02'0 0.4
2016-Dec-05 13:33N 49°09' W 123°02'4 4.0
2016-Dec-05 12:29N 49°06' W 123°08'4 4.1
2016-Dec-05 11:33N 49°08' W 123°13'3 3.2
2016-Dec-05 10:31N 49°06' W 123°18'2 2.5
2016-Dec-05 09:33N 49°04' W 123°19'6 5.9
2016-Dec-05 08:33N 48°60' W 123°13'5 5.2
2016-Dec-05 07:32N 48°56' W 123°07'23 4.7
2016-Dec-05 02:33N 48°39' W 122°43'6 6.3
2016-Dec-05 01:33N 48°33' W 122°45'6 6.3
2016-Dec-05 00:33N 48°27' W 122°44'26 5.1
2016-Dec-04 19:23N 48°01' W 122°37'6 7.7
2016-Dec-04 18:33N 47°56' W 122°30'6 6.3
2016-Dec-04 17:33N 47°51' W 122°27'6 5.9
2016-Dec-04 16:33N 47°45' W 122°26'7 6.5
2016-Dec-04 15:33N 47°38' W 122°26'4 3.8
2016-Dec-04 14:33N 47°35' W 122°22'2 0.1
2016-Dec-03 03:33N 47°33' W 122°21'4 3.6
2016-Dec-03 02:34N 47°36' W 122°23'6 6.0
2016-Dec-03 01:33N 47°41' W 122°28'6 6.3
2016-Dec-03 00:33N 47°48' W 122°28'7 6.5
2016-Dec-02 23:33N 47°54' W 122°30'7 6.6
2016-Dec-02 22:32N 47°59' W 122°37'32 5.4
2016-Dec-02 16:32N 48°31' W 122°45'5 5.5
2016-Dec-02 15:33N 48°36' W 122°45'5 4.6
2016-Dec-02 14:34N 48°41' W 122°44'4 4.2
2016-Dec-02 13:33N 48°45' W 122°47'6 5.5
2016-Dec-02 12:33N 48°48' W 122°54'5 5.1
2016-Dec-02 11:33N 48°51' W 123°00'6 5.9
2016-Dec-02 10:33N 48°54' W 123°07'6 6.0
2016-Dec-02 09:33N 48°58' W 123°14'6 6.3
2016-Dec-02 08:33N 49°03' W 123°20'7 6.5
2016-Dec-02 07:33N 49°07' W 123°12'7 6.7
2016-Dec-02 06:33N 49°09' W 123°02'0 0.1
2016-Dec-02 05:33N 49°09' W 123°02'0 0.0
2016-Dec-02 04:33N 49°09' W 123°02'0 0.0
2016-Dec-02 03:34N 49°09' W 123°02'0 0.0
2016-Dec-02 02:33N 49°09' W 123°02'0 0.0
2016-Dec-02 01:34N 49°09' W 123°02'0 0.0
2016-Dec-02 00:33N 49°09' W 123°02'0 0.0
2016-Dec-01 23:33N 49°09' W 123°02'0 0.0
2016-Dec-01 22:33N 49°09' W 123°02'0 0.0
2016-Dec-01 21:34N 49°09' W 123°02'0 0.0
2016-Dec-01 20:34N 49°09' W 123°02'0 0.0
2016-Dec-01 19:33N 49°09' W 123°02'0 0.0
2016-Dec-01 18:33N 49°09' W 123°02'0 0.0
2016-Dec-01 17:34N 49°09' W 123°02'0 0.0
2016-Dec-01 16:34N 49°09' W 123°02'0 0.0
2016-Dec-01 15:34N 49°09' W 123°02'0 0.0
2016-Dec-01 14:34N 49°09' W 123°02'0 0.0
2016-Dec-01 13:34N 49°09' W 123°02'0 0.0
2016-Dec-01 12:33N 49°09' W 123°02'5 4.5
2016-Dec-01 11:33N 49°07' W 123°08'7 7.4
2016-Dec-01 10:33N 49°06' W 123°19'7 7.3
2016-Dec-01 09:32N 48°60' W 123°13'25 8.5
2016-Dec-01 06:34N 48°43' W 122°44'6 6.1
2016-Dec-01 05:33N 48°37' W 122°45'5 5.3
2016-Dec-01 04:31N 48°31' W 122°44'6 6.0
2016-Dec-01 03:28N 48°25' W 122°44'28 7.1
2016-Nov-30 23:34N 47°58' W 122°34'8 7.9
2016-Nov-30 22:34N 47°51' W 122°27'9 8.9
2016-Nov-30 21:34N 47°43' W 122°27'7 7.5
2016-Nov-30 20:34N 47°36' W 122°22'4 4.4
2016-Nov-30 19:34N 47°40' W 122°24'1 0.0
2016-Nov-29 07:19N 47°39' W 122°22'0 0.5
2016-Nov-29 06:33N 47°40' W 122°22'2 2.0
2016-Nov-29 05:33N 47°41' W 122°25'6 6.2
2016-Nov-29 04:33N 47°35' W 122°27'9 8.7
2016-Nov-29 03:33N 47°26' W 122°31'9 9.1
2016-Nov-29 02:33N 47°17' W 122°33'9 9.0
2016-Nov-29 01:32N 47°09' W 122°39'1 0.6
2016-Nov-29 00:24N 47°09' W 122°38'0 0.0
2016-Nov-28 23:33N 47°09' W 122°38'0 0.1
2016-Nov-28 21:30N 47°08' W 122°39'4 4.4
2016-Nov-28 20:30N 47°12' W 122°36'9 9.4
2016-Nov-28 19:33N 47°21' W 122°33'8 8.5
2016-Nov-28 18:33N 47°29' W 122°30'9 8.9
2016-Nov-28 17:33N 47°38' W 122°28'3 3.3
2016-Nov-28 16:33N 47°40' W 122°24'  

Dump ship's entire track history